Time;durP1;ratioP1;P1;durP2;ratioP2;P2;SDS_P1;SDS_P2;PMS_P1;PMS_P2;Temp;Humidity;BMP_temperature;BMP_pressure;BME280_temperature;BME280_humidity;BME280_pressure;Samples;Min_cycle;Max_cycle;Signal;HPM_P1;HPM_P2
2023/03/21 00:00:36;;;;;;;12.85;7.32;;;;;;;10.87;nan;101414.00;4992257;28;20038;-50
2023/03/21 00:03:01;;;;;;;15.18;6.65;;;;;;;10.88;nan;101423.63;4994392;28;20048;-50
2023/03/21 00:05:27;;;;;;;13.95;7.00;;;;;;;10.87;nan;101414.00;4995907;28;20416;-53
2023/03/21 00:07:52;;;;;;;11.85;7.00;;;;;;;10.90;nan;101411.25;4988881;28;20492;-52
2023/03/21 00:10:18;;;;;;;14.73;7.35;;;;;;;10.89;nan;101409.53;4992274;28;20034;-50
2023/03/21 00:12:43;;;;;;;16.65;7.32;;;;;;;10.88;nan;101413.09;4991692;28;20164;-53
2023/03/21 00:15:11;;;;;;;16.02;8.38;;;;;;;10.86;nan;101414.09;4993307;28;20026;-53
2023/03/21 00:17:38;;;;;;;17.38;8.43;;;;;;;10.88;nan;101412.25;4994611;28;20033;-56
2023/03/21 00:20:07;;;;;;;13.63;7.45;;;;;;;10.90;nan;101405.09;4991576;28;20026;-53
2023/03/21 00:22:35;;;;;;;18.35;7.03;;;;;;;10.87;nan;101403.47;4995111;28;20025;-52
2023/03/21 00:25:02;;;;;;;17.48;7.47;;;;;;;10.87;nan;101408.75;4994403;28;20431;-54
2023/03/21 00:27:27;;;;;;;16.10;7.43;;;;;;;10.85;nan;101407.97;4998433;28;20029;-53
2023/03/21 00:29:53;;;;;;;17.30;7.60;;;;;;;10.88;nan;101412.25;5006110;28;20022;-53
2023/03/21 00:32:20;;;;;;;13.45;7.15;;;;;;;10.85;nan;101410.59;4998027;28;20042;-53
2023/03/21 00:34:46;;;;;;;11.60;6.82;;;;;;;10.81;nan;101404.63;4994149;28;20458;-52
2023/03/21 00:37:15;;;;;;;16.88;8.13;;;;;;;10.82;nan;101405.47;5003431;28;20431;-53
2023/03/21 00:39:42;;;;;;;22.17;7.80;;;;;;;10.87;nan;101402.63;5001010;28;20057;-52
2023/03/21 00:42:08;;;;;;;15.15;7.13;;;;;;;10.85;nan;101404.50;5001639;28;20069;-54
2023/03/21 00:44:35;;;;;;;11.93;7.50;;;;;;;10.83;nan;101399.28;5009069;28;20112;-53
2023/03/21 00:47:05;;;;;;;14.10;7.75;;;;;;;10.81;nan;101395.91;5007234;28;20030;-53
2023/03/21 00:49:36;;;;;;;14.35;7.55;;;;;;;10.82;nan;101389.69;5007243;28;20033;-52
2023/03/21 00:52:05;;;;;;;17.13;7.30;;;;;;;10.81;nan;101391.47;4999952;28;20037;-55
2023/03/21 00:54:35;;;;;;;20.27;8.93;;;;;;;10.85;nan;101391.31;5006580;28;20125;-55
2023/03/21 00:57:02;;;;;;;14.27;7.57;;;;;;;10.84;nan;101395.72;5002569;28;20037;-53
2023/03/21 00:59:28;;;;;;;18.42;8.63;;;;;;;10.82;nan;101392.31;5002524;28;20149;-52
2023/03/21 01:01:53;;;;;;;13.75;7.63;;;;;;;10.83;nan;101394.00;5001408;28;20727;-55
2023/03/21 01:04:19;;;;;;;17.55;7.90;;;;;;;10.85;nan;101397.44;4985495;28;23911;-55
2023/03/21 01:06:46;;;;;;;13.18;7.28;;;;;;;10.86;nan;101390.41;4980234;28;20037;-53
2023/03/21 01:09:17;;;;;;;14.65;7.65;;;;;;;10.87;nan;101392.94;4988543;28;20148;-52
2023/03/21 01:11:43;;;;;;;16.13;7.78;;;;;;;10.83;nan;101391.38;4988110;28;20030;-55
2023/03/21 01:14:09;;;;;;;17.20;7.93;;;;;;;10.83;nan;101383.47;4994652;28;20041;-53
2023/03/21 01:16:35;;;;;;;12.48;7.57;;;;;;;10.86;nan;101399.13;4991554;28;20061;-54
2023/03/21 01:19:02;;;;;;;18.55;7.50;;;;;;;10.86;nan;101385.13;4993042;28;20045;-52
2023/03/21 01:21:28;;;;;;;14.45;7.43;;;;;;;10.81;nan;101385.38;4999773;28;20034;-51
2023/03/21 01:23:53;;;;;;;16.85;6.88;;;;;;;10.80;nan;101388.94;4994190;28;20091;-53
2023/03/21 01:26:19;;;;;;;13.90;7.35;;;;;;;10.79;nan;101389.84;4996812;28;20036;-51
2023/03/21 01:28:45;;;;;;;17.08;8.18;;;;;;;10.78;nan;101390.78;5002948;28;20099;-51
2023/03/21 01:31:15;;;;;;;15.60;7.88;;;;;;;10.78;nan;101383.72;5000170;28;20030;-50
2023/03/21 01:33:41;;;;;;;16.90;7.53;;;;;;;10.78;nan;101385.50;5006113;28;20019;-51
2023/03/21 01:36:08;;;;;;;14.57;6.70;;;;;;;10.80;nan;101383.66;4991912;28;20029;-51
2023/03/21 01:38:34;;;;;;;15.13;8.10;;;;;;;10.77;nan;101378.53;4993702;28;20045;-53
2023/03/21 01:41:03;;;;;;;18.48;7.78;;;;;;;10.75;nan;101390.91;4994213;28;20029;-50
2023/03/21 01:43:31;;;;;;;12.70;7.60;;;;;;;10.78;nan;101390.78;4988808;28;20030;-57
2023/03/21 01:46:09;;;;;;;16.88;8.40;;;;;;;10.75;nan;101386.50;4986979;28;20140;-50
2023/03/21 01:48:43;;;;;;;15.45;7.50;;;;;;;10.73;nan;101387.50;4992280;28;20018;-56
2023/03/21 01:51:11;;;;;;;14.43;7.65;;;;;;;10.70;nan;101393.78;4990121;28;20034;-52
2023/03/21 01:53:39;;;;;;;15.30;7.90;;;;;;;10.70;nan;101387.63;4989096;28;20030;-51
2023/03/21 01:56:10;;;;;;;14.68;7.45;;;;;;;10.69;nan;101386.81;4993810;28;20087;-54
2023/03/21 01:58:37;;;;;;;9.32;5.25;;;;;;;10.67;nan;101378.97;4991268;28;20121;-51
2023/03/21 02:01:03;;;;;;;18.70;7.07;;;;;;;10.68;nan;101383.28;4993268;28;20076;-54
2023/03/21 02:03:36;;;;;;;16.08;7.78;;;;;;;10.68;nan;101383.28;4994799;28;20069;-51
2023/03/21 02:06:08;;;;;;;18.23;8.07;;;;;;;10.71;nan;101384.09;4987992;28;20033;-55
2023/03/21 02:08:34;;;;;;;19.17;7.72;;;;;;;10.70;nan;101390.28;4992856;28;20018;-53
2023/03/21 02:10:59;;;;;;;12.93;7.78;;;;;;;10.74;nan;101386.56;4981915;28;20046;-52
2023/03/21 02:13:25;;;;;;;8.70;4.93;;;;;;;10.73;nan;101387.50;4987227;28;21287;-53
2023/03/21 02:16:37;;;;;;;17.75;7.55;;;;;;;10.73;nan;101390.13;4989378;28;20405;-53
2023/03/21 02:19:28;;;;;;;14.32;7.75;;;;;;;10.72;nan;101386.66;4980555;28;20037;-50
2023/03/21 02:22:18;;;;;;;16.35;8.75;;;;;;;10.70;nan;101382.38;4986658;28;20035;-48
2023/03/21 02:24:58;;;;;;;19.38;8.50;;;;;;;10.67;nan;101378.13;4994473;28;20056;-53
2023/03/21 02:27:25;;;;;;;16.42;7.30;;;;;;;10.67;nan;101372.84;4999401;28;20030;-50
2023/03/21 02:30:24;;;;;;;13.70;7.20;;;;;;;10.63;nan;101380.06;5003400;28;20033;-49
2023/03/21 02:33:09;;;;;;;13.65;7.28;;;;;;;10.62;nan;101380.09;5005342;28;20037;-51
2023/03/21 02:36:12;;;;;;;12.88;6.75;;;;;;;10.61;nan;101381.03;4991865;28;20028;-52
2023/03/21 02:38:55;;;;;;;15.95;7.70;;;;;;;10.57;nan;101377.69;5004731;28;20085;-51
2023/03/21 02:41:29;;;;;;;;;;;;;;;10.50;nan;101381.56;4998806;28;20053;-56
2023/03/21 02:44:14;;;;;;;12.38;6.65;;;;;;;10.53;nan;101378.75;5005116;28;19913;-51
2023/03/21 02:47:01;;;;;;;12.55;6.85;;;;;;;10.51;nan;101372.75;5002796;28;20036;-51
2023/03/21 02:49:29;;;;;;;15.27;6.57;;;;;;;10.48;nan;101372.88;5003535;28;20088;-54
2023/03/21 02:51:58;;;;;;;11.73;6.88;;;;;;;10.42;nan;101378.44;5006087;28;20026;-50
2023/03/21 02:54:25;;;;;;;14.32;7.97;;;;;;;10.40;nan;101378.50;4995681;28;20061;-51
2023/03/21 02:56:52;;;;;;;14.73;7.50;;;;;;;10.41;nan;101379.34;4995816;28;20033;-53
2023/03/21 02:59:20;;;;;;;14.10;7.70;;;;;;;10.41;nan;101381.97;4989504;28;20932;-50
2023/03/21 03:01:45;;;;;;;15.98;7.97;;;;;;;10.43;nan;101385.41;4989110;28;20034;-53
2023/03/21 03:04:22;;;;;;;16.90;7.53;;;;;;;10.44;nan;101389.75;4993295;28;20096;-52
2023/03/21 03:06:48;;;;;;;16.27;7.53;;;;;;;10.44;nan;101387.09;4995199;28;20041;-52
2023/03/21 03:09:42;;;;;;;14.95;7.32;;;;;;;10.43;nan;101388.03;4995124;28;20030;-54
2023/03/21 03:12:34;;;;;;;18.05;8.10;;;;;;;10.47;nan;101381.72;4997017;28;20038;-50
2023/03/21 03:15:03;;;;;;;15.05;7.72;;;;;;;10.48;nan;101386.88;4986776;28;20064;-56
2023/03/21 03:17:42;;;;;;;13.57;7.57;;;;;;;10.50;nan;101389.47;4994561;28;20447;-51
2023/03/21 03:20:30;;;;;;;13.98;7.05;;;;;;;10.48;nan;101391.31;4998077;28;20109;-55
2023/03/21 03:23:11;;;;;;;15.35;7.45;;;;;;;10.45;nan;101391.44;4982404;28;20104;-50
2023/03/21 03:26:08;;;;;;;14.40;7.13;;;;;;;10.40;nan;101391.66;4992497;28;20041;-52
2023/03/21 03:28:43;;;;;;;14.80;7.43;;;;;;;10.40;nan;101396.06;4984096;28;20045;-55
2023/03/21 03:31:13;;;;;;;12.77;7.20;;;;;;;10.41;nan;101387.25;4997093;28;20032;-50
2023/03/21 03:33:45;;;;;;;13.55;7.40;;;;;;;10.42;nan;101394.22;4992537;28;20164;-52
2023/03/21 03:36:13;;;;;;;15.20;7.25;;;;;;;10.40;nan;101401.31;4995245;28;20052;-54
2023/03/21 03:38:40;;;;;;;15.55;7.40;;;;;;;10.37;nan;101392.59;4988412;28;20120;-56
2023/03/21 03:41:17;;;;;;;15.73;7.65;;;;;;;10.38;nan;101401.41;4991386;28;20038;-52
2023/03/21 03:43:49;;;;;;;14.98;7.03;;;;;;;10.36;nan;101396.16;4994493;28;20028;-53
2023/03/21 03:46:29;;;;;;;;;;;;;;;10.33;nan;101398.97;4991993;28;20450;-54
2023/03/21 03:49:00;;;;;;;15.57;7.00;;;;;;;10.34;nan;101390.16;4993659;28;19933;-54
2023/03/21 03:51:31;;;;;;;14.15;7.30;;;;;;;10.35;nan;101397.13;4999021;28;20081;-52
2023/03/21 03:54:05;;;;;;;13.13;7.85;;;;;;;10.35;nan;101394.47;4996144;28;20449;-50
2023/03/21 03:56:31;;;;;;;14.50;7.80;;;;;;;10.39;nan;101394.34;5001442;28;20037;-50
2023/03/21 03:58:57;;;;;;;14.60;7.50;;;;;;;10.39;nan;101389.09;4991375;28;20022;-55
2023/03/21 04:01:22;;;;;;;12.90;7.65;;;;;;;10.36;nan;101393.53;4990262;28;20044;-57
2023/03/21 04:03:48;;;;;;;13.70;7.97;;;;;;;10.39;nan;101394.34;4991104;28;20042;-49
2023/03/21 04:06:15;;;;;;;19.90;7.47;;;;;;;10.43;nan;101395.91;4982630;28;20973;-53
2023/03/21 04:08:41;;;;;;;15.13;8.55;;;;;;;10.44;nan;101393.22;4994161;28;20041;-54
2023/03/21 04:11:07;;;;;;;18.35;9.95;;;;;;;10.44;nan;101384.47;4994944;28;20038;-57
2023/03/21 04:13:33;;;;;;;16.67;8.27;;;;;;;10.44;nan;101382.69;4988479;28;20041;-52
2023/03/21 04:15:59;;;;;;;17.95;8.43;;;;;;;10.44;nan;101389.75;4989217;28;20041;-52
2023/03/21 04:18:25;;;;;;;16.58;9.23;;;;;;;10.47;nan;101386.97;4995487;28;20110;-54
2023/03/21 04:20:51;;;;;;;19.13;8.25;;;;;;;10.49;nan;101380.69;4992089;28;20049;-54
2023/03/21 04:23:18;;;;;;;17.00;6.65;;;;;;;10.50;nan;101382.41;4996851;28;20488;-55
2023/03/21 04:25:44;;;;;;;14.85;8.30;;;;;;;10.49;nan;101385.13;4999181;28;20034;-52
2023/03/21 04:28:10;;;;;;;17.30;8.93;;;;;;;10.48;nan;101378.16;5004274;28;20033;-52
2023/03/21 04:30:36;;;;;;;15.45;9.02;;;;;;;10.48;nan;101383.41;5004291;28;20092;-53
2023/03/21 04:33:01;;;;;;;17.80;7.82;;;;;;;10.47;nan;101387.81;5008295;28;20038;-55
2023/03/21 04:35:27;;;;;;;17.52;8.85;;;;;;;10.43;nan;101386.28;5006861;28;20057;-55
2023/03/21 04:37:54;;;;;;;19.35;10.00;;;;;;;10.45;nan;101383.56;4993679;28;20428;-51
2023/03/21 04:40:19;;;;;;;19.15;11.55;;;;;;;10.48;nan;101388.69;5003555;28;20018;-55
2023/03/21 04:42:46;;;;;;;17.02;9.40;;;;;;;10.46;nan;101390.53;5009394;28;20056;-52
2023/03/21 04:45:12;;;;;;;20.15;9.98;;;;;;;10.41;nan;101390.75;5003037;28;20057;-54
2023/03/21 04:47:38;;;;;;;15.13;8.63;;;;;;;10.41;nan;101384.63;5003878;28;20125;-54
2023/03/21 04:50:04;;;;;;;22.70;9.20;;;;;;;10.41;nan;101387.25;5003884;28;20091;-53
2023/03/21 04:52:29;;;;;;;15.73;9.77;;;;;;;10.41;nan;101387.25;4991124;28;20053;-53
2023/03/21 04:54:55;;;;;;;21.75;10.02;;;;;;;10.37;nan;101389.13;5001699;28;20026;-54
2023/03/21 04:57:20;;;;;;;15.45;8.40;;;;;;;10.37;nan;101391.78;4988553;28;20050;-50
2023/03/21 04:59:46;;;;;;;15.45;7.50;;;;;;;10.39;nan;101391.72;4989712;28;20049;-58
2023/03/21 05:02:12;;;;;;;15.60;8.88;;;;;;;10.42;nan;101388.94;4992307;28;22196;-51
2023/03/21 05:04:38;;;;;;;14.65;8.50;;;;;;;10.42;nan;101383.69;4986342;28;20038;-52
2023/03/21 05:07:04;;;;;;;13.65;7.90;;;;;;;10.42;nan;101391.59;4987168;28;20041;-53
2023/03/21 05:09:29;;;;;;;18.17;7.95;;;;;;;10.41;nan;101392.50;4992846;28;20034;-50
2023/03/21 05:11:55;;;;;;;18.45;8.20;;;;;;;10.44;nan;101395.00;4994823;28;20050;-53
2023/03/21 05:14:24;;;;;;;15.65;8.50;;;;;;;10.44;nan;101395.84;4993514;28;20034;-51
2023/03/21 05:16:55;;;;;;;17.58;10.30;;;;;;;10.42;nan;101388.94;4992424;28;20037;-51
2023/03/21 05:19:33;;;;;;;20.60;11.05;;;;;;;10.39;nan;101396.97;4992805;28;20024;-50
2023/03/21 05:22:04;;;;;;;20.35;9.68;;;;;;;10.37;nan;101402.28;4994241;28;20453;-51
2023/03/21 05:24:31;;;;;;;17.55;8.38;;;;;;;10.33;nan;101401.59;4989908;28;20033;-55
2023/03/21 05:27:01;;;;;;;26.80;8.20;;;;;;;10.29;nan;101405.28;4981931;28;20030;-51
2023/03/21 05:29:29;;;;;;;13.85;7.35;;;;;;;10.30;nan;101409.63;4992577;28;20042;-52
2023/03/21 05:31:55;;;;;;;11.82;7.20;;;;;;;10.30;nan;101407.00;4982944;28;20109;-51
2023/03/21 05:34:21;;;;;;;11.45;7.43;;;;;;;10.28;nan;101408.81;4982519;28;20068;-55
2023/03/21 05:36:46;;;;;;;14.60;8.68;;;;;;;10.30;nan;101414.00;4991136;28;20038;-51
2023/03/21 05:39:12;;;;;;;16.00;8.13;;;;;;;10.31;nan;101408.69;4993848;28;20041;-51
2023/03/21 05:41:37;;;;;;;12.63;6.80;;;;;;;10.33;nan;101412.13;4987183;28;20034;-53
2023/03/21 05:44:03;;;;;;;14.30;7.85;;;;;;;10.31;nan;101413.97;4979536;28;20096;-54
2023/03/21 05:46:29;;;;;;;14.35;7.13;;;;;;;10.34;nan;101416.44;4995077;28;20030;-51
2023/03/21 05:48:54;;;;;;;12.48;7.80;;;;;;;10.36;nan;101414.56;4982983;28;20022;-53
2023/03/21 05:51:20;;;;;;;14.75;7.57;;;;;;;10.35;nan;101405.00;4994810;28;20028;-50
2023/03/21 05:53:45;;;;;;;11.27;6.80;;;;;;;10.36;nan;101409.31;5000788;28;20088;-55
2023/03/21 05:56:11;;;;;;;12.18;8.18;;;;;;;10.39;nan;101404.88;4995480;28;20616;-53
2023/03/21 05:58:36;;;;;;;17.65;7.60;;;;;;;10.39;nan;101410.13;4999205;28;20056;-50
2023/03/21 06:01:02;;;;;;;19.08;8.57;;;;;;;10.39;nan;101413.63;4987081;28;20037;-50
2023/03/21 06:03:27;;;;;;;15.85;9.18;;;;;;;10.36;nan;101411.94;4994065;28;20038;-55
2023/03/21 06:05:53;;;;;;;16.17;7.93;;;;;;;10.34;nan;101413.81;5002082;28;20032;-52
2023/03/21 06:08:18;;;;;;;16.20;7.93;;;;;;;10.36;nan;101411.09;5004509;28;20053;-55
2023/03/21 06:10:44;;;;;;;14.25;8.05;;;;;;;10.41;nan;101413.56;4993314;28;20045;-51
2023/03/21 06:13:09;;;;;;;16.52;9.68;;;;;;;10.43;nan;101414.34;5003346;28;20036;-51
2023/03/21 06:15:35;;;;;;;15.18;8.65;;;;;;;10.46;nan;101409.78;5000276;28;20036;-54
2023/03/21 06:18:00;;;;;;;17.00;8.60;;;;;;;10.50;nan;101415.78;4996540;28;20049;-54
2023/03/21 06:20:26;;;;;;;13.98;8.68;;;;;;;10.53;nan;101418.25;5002834;28;20050;-51
2023/03/21 06:22:51;;;;;;;15.48;8.40;;;;;;;10.53;nan;101420.88;4999098;28;20030;-52
2023/03/21 06:25:18;;;;;;;15.68;7.72;;;;;;;10.53;nan;101418.25;5005030;28;20504;-51
2023/03/21 06:27:44;;;;;;;9.40;6.85;;;;;;;10.51;nan;101420.94;5006825;28;20037;-54
2023/03/21 06:30:10;;;;;;;12.73;7.32;;;;;;;10.50;nan;101427.13;5008642;28;20045;-54
2023/03/21 06:32:35;;;;;;;15.95;7.95;;;;;;;10.52;nan;101419.16;5011151;28;20116;-52
2023/03/21 06:35:01;;;;;;;15.07;7.75;;;;;;;10.56;nan;101423.38;4994025;28;20592;-51
2023/03/21 06:37:26;;;;;;;15.82;6.82;;;;;;;10.62;nan;101422.22;5001628;28;20030;-56
2023/03/21 06:39:52;;;;;;;18.90;8.35;;;;;;;10.58;nan;101418.88;5004001;28;20600;-52
2023/03/21 06:42:18;;;;;;;15.70;9.05;;;;;;;10.60;nan;101418.81;5005580;28;20555;-53
2023/03/21 06:44:43;;;;;;;12.52;8.00;;;;;;;10.62;nan;101432.75;5008180;28;20137;-51
2023/03/21 06:47:08;;;;;;;14.73;7.28;;;;;;;10.63;nan;101430.06;5004609;28;20060;-50
2023/03/21 06:49:35;;;;;;;20.80;9.07;;;;;;;10.67;nan;101436.88;5003752;28;20037;-54
2023/03/21 06:52:01;;;;;;;15.88;7.68;;;;;;;10.72;nan;101433.16;5004161;28;20130;-51
2023/03/21 06:54:26;;;;;;;20.40;8.35;;;;;;;10.73;nan;101434.88;4998022;28;20066;-53
2023/03/21 06:56:53;;;;;;;18.00;8.05;;;;;;;10.73;nan;101432.25;5004617;28;20029;-52
2023/03/21 06:59:18;;;;;;;14.25;7.75;;;;;;;10.73;nan;101432.25;5006248;28;20029;-51
2023/03/21 07:01:44;;;;;;;16.13;8.25;;;;;;;10.77;nan;101431.19;5005850;28;20034;-50
2023/03/21 07:04:10;;;;;;;15.88;9.35;;;;;;;10.79;nan;101434.59;5000251;28;20039;-50
2023/03/21 07:06:36;;;;;;;16.17;7.45;;;;;;;10.82;nan;101440.56;5008109;28;20468;-53
2023/03/21 07:09:04;;;;;;;12.95;7.50;;;;;;;10.84;nan;101448.38;5003922;28;20037;-51
2023/03/21 07:11:30;;;;;;;25.25;8.13;;;;;;;10.87;nan;101450.88;5002886;28;20057;-51
2023/03/21 07:13:56;;;;;;;18.30;9.45;;;;;;;10.89;nan;101443.75;5006420;28;20026;-51
2023/03/21 07:16:23;;;;;;;25.17;10.02;;;;;;;10.91;nan;101447.16;5005665;28;20022;-50
2023/03/21 07:18:49;;;;;;;18.30;9.65;;;;;;;10.93;nan;101442.69;5013832;28;20468;-50
2023/03/21 07:21:15;;;;;;;22.30;9.68;;;;;;;10.94;nan;101452.31;5001194;28;20032;-50
2023/03/21 07:23:41;;;;;;;17.10;9.82;;;;;;;10.96;nan;101445.19;5001541;28;20041;-59
2023/03/21 07:26:07;;;;;;;23.33;9.40;;;;;;;11.01;nan;101449.34;5009523;28;20033;-51
2023/03/21 07:28:32;;;;;;;21.52;9.27;;;;;;;11.04;nan;101450.03;5001645;28;20026;-51
2023/03/21 07:31:03;;;;;;;17.75;8.43;;;;;;;11.07;nan;101449.06;4999569;28;20081;-52
2023/03/21 07:33:29;;;;;;;16.42;9.50;;;;;;;11.09;nan;101448.06;5000711;28;20488;-52
2023/03/21 07:35:56;;;;;;;19.65;9.90;;;;;;;11.11;nan;101446.22;5010780;28;20040;-50
2023/03/21 07:38:22;;;;;;;17.02;9.45;;;;;;;11.10;nan;101443.66;5004567;28;20026;-50
2023/03/21 07:40:48;;;;;;;19.35;9.23;;;;;;;11.12;nan;101444.41;5004760;28;20064;-50
2023/03/21 07:43:14;;;;;;;17.55;10.68;;;;;;;11.08;nan;101446.34;5009506;28;20080;-50
2023/03/21 07:45:41;;;;;;;22.10;11.80;;;;;;;11.07;nan;101447.28;5000237;28;20022;-50
2023/03/21 07:48:07;;;;;;;19.70;10.07;;;;;;;11.07;nan;101443.81;4999758;28;20026;-53
2023/03/21 07:50:34;;;;;;;21.67;11.55;;;;;;;11.09;nan;101439.31;5012668;28;20025;-50
2023/03/21 07:52:59;;;;;;;21.17;10.07;;;;;;;11.16;nan;101442.50;5010993;28;20058;-51
2023/03/21 07:55:25;;;;;;;25.92;14.05;;;;;;;11.26;nan;101441.09;5013320;28;20060;-51
2023/03/21 07:57:51;;;;;;;23.40;12.32;;;;;;;11.34;nan;101435.47;5007266;28;20026;-54
2023/03/21 08:00:21;;;;;;;23.02;12.25;;;;;;;11.42;nan;101435.91;5005041;28;20040;-50
2023/03/21 08:02:55;;;;;;;19.05;11.55;;;;;;;11.50;nan;101439.03;5000808;28;20030;-57
2023/03/21 08:05:26;;;;;;;21.50;10.98;;;;;;;11.55;nan;101437.03;5008142;28;20033;-50
2023/03/21 08:07:51;;;;;;;24.00;12.13;;;;;;;11.57;nan;101442.22;5006935;28;20029;-51
2023/03/21 08:10:18;;;;;;;21.33;11.48;;;;;;;11.62;nan;101434.06;5008569;28;20400;-50
2023/03/21 08:12:44;;;;;;;22.67;12.18;;;;;;;11.68;nan;101433.75;5002348;28;20117;-55
2023/03/21 08:15:10;;;;;;;19.30;11.55;;;;;;;11.75;nan;101432.50;5003202;28;20033;-51
2023/03/21 08:17:36;;;;;;;18.52;11.23;;;;;;;11.80;nan;101434.91;5010169;28;20038;-53
2023/03/21 08:20:06;;;;;;;20.42;12.25;;;;;;;11.86;nan;101438.09;5009447;28;20034;-54
2023/03/21 08:22:32;;;;;;;23.10;11.93;;;;;;;11.94;nan;101447.38;5003640;28;20033;-52
2023/03/21 08:24:57;;;;;;;23.40;12.77;;;;;;;11.96;nan;101445.50;5010931;28;20045;-50
2023/03/21 08:27:24;;;;;;;24.40;12.25;;;;;;;11.97;nan;101445.41;5001140;28;20030;-52
2023/03/21 08:29:50;;;;;;;26.90;13.23;;;;;;;11.94;nan;101442.97;5011326;28;20037;-52
2023/03/21 08:32:17;;;;;;;22.52;12.55;;;;;;;11.93;nan;101440.38;5001462;28;20136;-53
2023/03/21 08:34:42;;;;;;;23.40;13.00;;;;;;;11.97;nan;101441.94;5010668;28;20060;-50
2023/03/21 08:37:08;;;;;;;26.17;13.77;;;;;;;12.03;nan;101437.22;5007259;28;20477;-50
2023/03/21 08:39:34;;;;;;;15.13;8.65;;;;;;;11.99;nan;101437.47;5004423;28;20539;-49
2023/03/21 08:41:59;;;;;;;28.48;14.30;;;;;;;11.99;nan;101442.75;5010010;28;20033;-51
2023/03/21 08:44:25;;;;;;;28.58;13.27;;;;;;;11.99;nan;101443.59;5008934;28;20026;-52
2023/03/21 08:46:55;;;;;;;24.00;13.55;;;;;;;12.01;nan;101433.81;5010755;28;20125;-50
2023/03/21 08:49:20;;;;;;;25.80;14.20;;;;;;;12.06;nan;101438.84;5007976;28;20485;-50
2023/03/21 08:51:46;;;;;;;31.38;18.88;;;;;;;12.13;nan;101437.59;5006993;28;20041;-49
2023/03/21 08:54:19;;;;;;;30.75;14.57;;;;;;;12.24;nan;101438.78;5002162;28;20072;-50
2023/03/21 08:56:45;;;;;;;27.77;15.73;;;;;;;12.28;nan;101443.81;4999693;28;20030;-51
2023/03/21 08:59:10;;;;;;;38.22;15.55;;;;;;;12.34;nan;101440.88;5003656;28;20031;-51
2023/03/21 09:01:36;;;;;;;29.35;15.35;;;;;;;12.42;nan;101443.09;5004465;28;20060;-51
2023/03/21 09:04:02;;;;;;;31.08;16.10;;;;;;;12.48;nan;101439.25;5012188;28;20029;-53
2023/03/21 09:06:28;;;;;;;29.10;15.60;;;;;;;12.49;nan;101447.06;5004172;28;20029;-53
2023/03/21 09:08:55;;;;;;;27.13;16.52;;;;;;;12.56;nan;101444.94;5006969;28;20037;-50
2023/03/21 09:11:21;;;;;;;34.47;17.05;;;;;;;12.62;nan;101454.34;4998561;28;20174;-52
2023/03/21 09:13:46;;;;;;;34.45;18.75;;;;;;;12.59;nan;101447.44;5005224;28;20125;-51
2023/03/21 09:16:12;;;;;;;31.98;17.10;;;;;;;12.63;nan;101456.91;5002673;28;20100;-53
2023/03/21 09:18:49;;;;;;;31.88;16.77;;;;;;;12.68;nan;101461.06;4999015;28;20093;-51
2023/03/21 09:21:17;;;;;;;30.95;17.05;;;;;;;12.64;nan;101450.69;5012030;28;20030;-53
2023/03/21 09:23:47;;;;;;;36.17;16.90;;;;;;;12.69;nan;101447.78;5011366;28;20034;-52
2023/03/21 09:26:13;;;;;;;32.67;16.92;;;;;;;12.70;nan;101438.94;5002936;28;20041;-53
2023/03/21 09:28:39;;;;;;;37.65;18.00;;;;;;;12.74;nan;101447.50;5005398;28;20034;-52
2023/03/21 09:31:07;;;;;;;33.83;17.52;;;;;;;12.81;nan;101447.09;5000070;28;20025;-56
2023/03/21 09:33:34;;;;;;;34.30;17.35;;;;;;;12.85;nan;101447.78;5003610;28;20088;-50
2023/03/21 09:36:00;;;;;;;28.85;17.50;;;;;;;12.92;nan;101438.56;5003279;28;20030;-51
2023/03/21 09:38:29;;;;;;;29.80;13.38;;;;;;;13.00;nan;101435.50;5005964;28;20522;-50
2023/03/21 09:41:10;;;;;;;25.40;14.68;;;;;;;13.04;nan;101436.16;4999969;28;20485;-52
2023/03/21 09:43:41;;;;;;;23.83;14.80;;;;;;;13.01;nan;101431.06;4999206;28;20036;-53
2023/03/21 09:46:22;;;;;;;27.77;14.50;;;;;;;13.08;nan;101438.53;4997131;28;20030;-51
2023/03/21 09:49:11;;;;;;;25.42;13.85;;;;;;;13.03;nan;101439.75;5004873;28;20025;-51
2023/03/21 09:51:45;;;;;;;30.00;14.77;;;;;;;13.04;nan;101438.81;5009617;28;20029;-50
2023/03/21 09:54:21;;;;;;;25.13;12.73;;;;;;;13.14;nan;101441.78;5003125;28;20025;-51
2023/03/21 09:56:49;;;;;;;23.42;13.05;;;;;;;13.20;nan;101438.78;5007898;28;20039;-50
2023/03/21 09:59:31;;;;;;;20.92;12.57;;;;;;;13.25;nan;101440.22;5007059;28;20033;-52
2023/03/21 10:01:59;;;;;;;;;;;;;;;13.26;nan;101433.13;5006247;28;20029;-50
2023/03/21 10:04:25;;;;;;;17.35;10.55;;;;;;;13.31;nan;101433.72;5006131;28;19918;-50
2023/03/21 10:07:00;;;;;;;16.85;9.55;;;;;;;13.37;nan;101438.66;5008438;28;20061;-52
2023/03/21 10:09:29;;;;;;;22.30;11.30;;;;;;;13.45;nan;101446.19;5001194;28;20107;-51
2023/03/21 10:11:57;;;;;;;20.30;11.38;;;;;;;13.46;nan;101439.09;5007951;28;20040;-54
2023/03/21 10:14:33;;;;;;;22.52;11.75;;;;;;;13.45;nan;101429.44;5005503;28;20032;-53
2023/03/21 10:17:21;;;;;;;22.20;12.25;;;;;;;13.43;nan;101432.19;5000340;28;20037;-50
2023/03/21 10:20:09;;;;;;;24.38;13.50;;;;;;;13.39;nan;101425.34;5002880;28;20029;-50
2023/03/21 10:22:35;;;;;;;21.85;11.75;;;;;;;13.40;nan;101429.72;5003790;28;20033;-53
2023/03/21 10:25:00;;;;;;;18.17;11.63;;;;;;;13.35;nan;101434.38;5008248;28;20029;-51
2023/03/21 10:27:26;;;;;;;20.60;12.50;;;;;;;13.29;nan;101435.59;5006667;28;20120;-49
2023/03/21 10:29:52;;;;;;;26.35;13.18;;;;;;;13.34;nan;101430.91;5006844;28;20025;-50
2023/03/21 10:32:18;;;;;;;26.27;13.55;;;;;;;13.45;nan;101424.16;5001215;28;20033;-52
2023/03/21 10:34:55;;;;;;;32.08;16.08;;;;;;;13.57;nan;101428.72;5000010;28;20033;-53
2023/03/21 10:37:22;;;;;;;21.70;11.73;;;;;;;13.63;nan;101428.38;5003774;28;20097;-51
2023/03/21 10:39:51;;;;;;;27.80;13.70;;;;;;;13.68;nan;101423.66;5003000;28;20042;-54
2023/03/21 10:42:20;;;;;;;26.23;14.05;;;;;;;13.78;nan;101420.44;5006372;28;20476;-50
2023/03/21 10:44:48;;;;;;;25.02;13.32;;;;;;;13.87;nan;101420.75;5006259;28;20037;-52
2023/03/21 10:47:23;;;;;;;30.40;15.32;;;;;;;13.87;nan;101414.59;5008753;28;20029;-54
2023/03/21 10:49:48;;;;;;;23.08;12.38;;;;;;;13.86;nan;101419.03;5004904;28;20037;-51
2023/03/21 10:52:18;;;;;;;22.83;12.15;;;;;;;13.86;nan;101419.03;4994849;28;20027;-50
2023/03/21 10:54:44;;;;;;;22.88;13.00;;;;;;;13.86;nan;101405.81;5004788;28;20037;-50
2023/03/21 10:57:20;;;;;;;29.52;14.65;;;;;;;13.87;nan;101414.59;5008560;28;20026;-50
2023/03/21 10:59:52;;;;;;;25.73;14.23;;;;;;;13.84;nan;101406.88;5007882;28;20026;-49
2023/03/21 11:02:47;;;;;;;26.33;13.18;;;;;;;13.83;nan;101395.41;4998700;28;20030;-50
2023/03/21 11:05:21;;;;;;;26.95;13.73;;;;;;;13.83;nan;101399.88;5005167;28;20121;-59
2023/03/21 11:07:55;;;;;;;27.17;13.85;;;;;;;13.83;nan;101394.59;5012036;28;20083;-53
2023/03/21 11:10:37;;;;;;;27.98;15.13;;;;;;;13.89;nan;101390.72;5000989;28;20018;-54
2023/03/21 11:13:18;;;;;;;25.25;14.45;;;;;;;13.93;nan;101400.13;5002129;28;20029;-51
2023/03/21 11:15:43;;;;;;;26.40;14.02;;;;;;;14.00;nan;101402.31;4996871;28;20528;-50
2023/03/21 11:18:21;;;;;;;25.95;15.02;;;;;;;14.03;nan;101399.47;5009537;28;20056;-50
2023/03/21 11:20:51;;;;;;;23.20;13.02;;;;;;;14.02;nan;101389.84;5002770;28;20038;-51
2023/03/21 11:23:17;;;;;;;25.33;14.32;;;;;;;14.05;nan;101390.59;5002848;28;20092;-50
2023/03/21 11:25:47;;;;;;;26.00;15.38;;;;;;;14.14;nan;101393.53;5000830;28;20089;-56
2023/03/21 11:28:17;;;;;;;26.33;15.60;;;;;;;14.16;nan;101393.41;4995063;28;20037;-51
2023/03/21 11:30:57;;;;;;;25.52;14.70;;;;;;;14.19;nan;101385.28;4994901;28;20077;-51
2023/03/21 11:33:26;;;;;;;24.35;14.25;;;;;;;14.23;nan;101392.09;4998534;28;20038;-51
2023/03/21 11:36:23;;;;;;;25.02;13.65;;;;;;;14.25;nan;101382.25;5007854;28;20089;-54
2023/03/21 11:38:56;;;;;;;22.85;14.48;;;;;;;14.26;nan;101380.47;5007173;28;20041;-52
2023/03/21 11:41:29;;;;;;;30.92;15.55;;;;;;;14.32;nan;101383.56;5006479;28;20057;-56